Victor Arango

Recruteur en chef - Deportivo Tachira
3 Déc 2028
Dimanche
Processus

Personnalité

Adaptabilité (10) Ambition (11) Controverse (16) Loyauté (18) Pression (12) Professionnalisme (6) Sportivité (18) Tempérament (12)

Profil

Style d'entraînement Démocratique
Diplôme Continental A
Détermination 12
Gestion des joueurs 12
Motivation 10
Discipline 8
Satisfaction professionnelle
75%
Fatigue
0%
Rôle Recruteur en chef
Salaire 22.7K p/s
Contrat 14.03.2030

Performance

Comportement Bon
Efficacité de l'entraînement
40%
Développement des joueurs
20%
Prévention des blessures
45%
Mise en place tactique
25%

Événements récents

A participé à une réunion de recrutement maintenant
A recommandé une cible de transfert maintenant
A recommandé une cible de transfert maintenant
A recommandé une cible de transfert maintenant
A recommandé une cible de transfert maintenant
A recommandé une cible de transfert maintenant
A participé à une réunion de recrutement maintenant
A participé à une réunion de recrutement 7j

Suivi en cours

116
Joueur Club Statut Capacité Confiance Observé Dernière observation Dernier vote
Manuel Sulbarán Deportivo La Guaira Rapport prêt 103 / 97 83% 1 02.12.2028 -
Rojas Deportivo La Guaira Négociation 95 / 109 83% 1 01.12.2028 -
Trey Nyoni Rotherham United Actif 147 / 146 40% 1 30.11.2028 -
Tobías Andrada River Plate Actif 121 / 123 40% 1 30.11.2028 -
Davinchi Getafe Actif 128 / 127 40% 1 30.11.2028 -
Santiago Gómez Zamora Actif 92 / 105 83% 1 06.06.2028 Approuver
David Ferraresi Zamora Actif 87 / 95 83% 1 01.06.2028 Approuver
Joel Ezra Enyimba Actif 98 / 98 40% 3 30.05.2028 -
Diego Vargas Universidad de Concepcion Actif 90 / 99 40% 1 30.05.2028 -
Inti Borghetto Patronato Actif 92 / 101 40% 1 30.05.2028 -
Honest Ahanor Atalanta Actif 136 / 136 40% 2 28.05.2028 -
Makar Vysochenko Spartak Moscow Actif 94 / 112 40% 1 25.05.2028 -
Nazareno Roselli Defensa y Justicia Actif 117 / 113 40% 2 22.05.2028 -
Martim Cunha Porto Actif 112 / 102 40% 1 22.05.2028 -
Gael Moreno Morelia Actif 72 / 81 40% 2 18.05.2028 -
Riquelme Thompson-Jones Accrington Stanley Actif 104 / 115 40% 2 18.05.2028 -
Miguel Figueiredo Benfica Actif 116 / 133 40% 1 18.05.2028 -
Tyler Fletcher Rotherham United Actif 115 / 126 40% 2 15.05.2028 -
Amine Boukamir Charleroi Actif 108 / 106 40% 1 15.05.2028 -
Olivier Leroux Mouscron Actif 98 / 109 40% 1 15.05.2028 -
Abubakar Adams Aduana Stars Actif 88 / 85 40% 2 14.05.2028 -
Daniel Banjaqui Benfica Actif 128 / 125 40% 2 11.05.2028 -
Francisco Arias Gimnasia y Esgrima Actif 92 / 101 40% 1 02.05.2028 -
Mateo Caballero Defensor Sporting Actif 104 / 108 40% 1 02.05.2028 -
Jorthy Mokio ADO Den Haag Actif 134 / 149 40% 1 02.05.2028 -
Jan Bürger Northampton Town Actif 122 / 132 40% 1 01.05.2028 -
Yaroslav Melnikov Spartak Moscow Actif 68 / 79 40% 1 01.05.2028 -
Isaí Valladares Zamora Actif 99 / 102 79% 1 13.12.2027 Approuver
Ilja Zhbanov Cobresal Actif 90 / 94 66% 1 01.12.2027 Approuver
Luciano Gondou Chelsea Actif 127 / 128 67% 1 01.12.2027 Approuver
Gideon Manaseh Ikorodu City Actif 88 / 94 40% 1 09.11.2027 -
Agustín Medina Lanús Actif 122 / 125 40% 1 09.11.2027 -
Matías Canedo Rampla Juniors Actif 85 / 93 40% 4 05.11.2027 -
Jon Esenga IF Elfsborg Actif 96 / 96 40% 1 05.11.2027 -
Mohamed Moussa Koïta Mathare United Actif 94 / 107 40% 2 03.11.2027 -
Yury Oyarzo Racing Actif 87 / 109 40% 2 02.11.2027 -
Benito Paklayan Alvarado Actif 80 / 91 40% 1 02.11.2027 -
Lucas Camejo River Plate Actif 85 / 96 40% 2 01.11.2027 -
Josh Nichols Oldham Athletic Actif 120 / 131 40% 1 01.11.2027 Plus d'infos
Mirza Ćatović VfB Stuttgart Actif 121 / 127 40% 1 01.11.2027 -
Adrian Skogmar Malmo FF Actif 107 / 121 40% 1 20.10.2027 -
Zahir Ibarra Defensa y Justicia Actif 102 / 107 40% 2 16.10.2027 -
Ángel Aguayo Sol de America Actif 94 / 107 40% 2 15.10.2027 -
Isaías Silva Miramar Misiones Actif 84 / 87 40% 2 14.10.2027 -
Ulises Giménez River Plate Actif 116 / 123 40% 1 14.10.2027 -
Milan Roki Cobresal Actif 75 / 82 40% 2 12.10.2027 -
Agustín Obregón River Plate Actif 107 / 118 40% 2 12.10.2027 -
Máximo Munarriz San Telmo Actif 95 / 103 40% 1 12.10.2027 -
Kevin Otiende Nairobi United Actif 63 / 61 40% 2 11.10.2027 -
Juan Manuel Villalba Tigre Actif 118 / 120 40% 1 11.10.2027 -
Halam Loboa Sevilla Actif 129 / 130 40% 1 10.10.2027 -
Óscar Hinojosa Metropolitanos Actif 87 / 90 40% 2 08.10.2027 -
Godswill Kenu Bayelsa United Actif 68 / 83 40% 2 08.10.2027 -
Jan Cedilnik Chikhura Actif 80 / 95 40% 1 05.10.2027 -
Ignacio Fernández Boston River Actif 94 / 107 40% 1 04.10.2027 -
Joelson Gamarra General Caballero Actif 75 / 77 40% 1 18.09.2027 -
Tiago Gordillo San Miguel Actif 82 / 88 40% 1 17.09.2027 -
Juan Camilo Córdoba Deportivo Pereira Actif 83 / 99 40% 1 16.09.2027 -
José Cavadia Aguilas Doradas Actif 105 / 109 40% 1 14.09.2027 -
Hian Rincón Once Caldas Actif 83 / 100 40% 1 12.09.2027 -
Mauro Carrizo Atlético Tucumán Actif 102 / 110 40% 1 12.09.2027 -
Onyeuche Ujunwa Ikorodu City Actif 90 / 92 40% 1 10.09.2027 -
Francisco Machis Llaneros Actif 84 / 91 40% 1 16.07.2027 -
Sascha Britschgi AC Milan Actif 120 / 120 40% 1 16.07.2027 -
Riley Owen Stevenage Actif 110 / 109 40% 1 30.05.2027 -
Kirill Danilin Ural Actif 107 / 95 40% 7 27.05.2027 -
Ekain Orobengoa Real Sociedad Actif 101 / 118 40% 5 27.05.2027 -
Tenton Yenne Baltika Actif 106 / 99 40% 4 26.05.2027 -
Lechi Sadulaev Akhmat Grozny Actif 134 / 129 40% 3 24.05.2027 -
Pablo García Gijón Actif 104 / 113 40% 4 23.05.2027 -
Đorđe Pantelić Spartak Kostroma Actif 97 / 110 40% 5 21.05.2027 -
Charlie Savage Reading Actif 114 / 113 40% 2 21.05.2027 -
André Miranda Porto Actif 104 / 113 40% 1 17.05.2027 -
Job Ochieng Real Sociedad Actif 114 / 99 40% 6 07.05.2027 -
Lander Astiazarán Real Sociedad Actif 98 / 112 40% 6 28.04.2027 -
Iker Pozo Rodina Actif 116 / 125 40% 3 26.04.2027 -
Tommaso Berti Cesena Actif 130 / 136 40% 3 24.04.2027 -
Ilja Vakhania Krasnodar Actif 113 / 122 40% 3 20.04.2027 -
Aldahir Pérez Tijuana Actif 99 / 110 40% 2 11.04.2027 -
Gonzalo Gamarra Floriana Actif 108 / 116 40% 5 07.04.2027 -
Ilja Berkovskiy Torpedo Moscow Actif 99 / 114 40% 1 25.03.2027 -
Maksim Samorodov Akhmat Grozny Actif 116 / 108 40% 2 23.03.2027 -
Nuri Abdokov Fakel Actif 108 / 98 40% 1 21.03.2027 -
Temirkan Sundukov Dinamo Makhachkala Actif 107 / 113 40% 2 20.03.2027 -
Mikhail Ignatov Sochi Actif 125 / 111 40% 2 16.03.2027 -
Vladimir Khubulov Dinamo Makhachkala Actif 116 / 103 40% 1 09.03.2027 -
Arsen Adamov Akhmat Grozny Actif 113 / 129 40% 2 06.03.2027 -
Danila Vedernikov Orenburg Actif 93 / 114 40% 1 06.03.2027 -
Ruslan Apekov Torpedo Moscow Actif 111 / 89 40% 3 03.03.2027 -
Ruslan Bezrukov Rubin Actif 118 / 120 40% 1 02.03.2027 -
Alan Tsaraev Arsenal Tula Actif 100 / 92 40% 1 21.02.2027 -
Mateo Ortale Khazar Actif 107 / 94 40% 2 17.02.2027 -
Dmitry Vasiljev Orenburg Actif 112 / 119 40% 1 14.02.2027 -
David Kokoev Yenisey Actif 96 / 120 40% 1 03.02.2027 -
Reda Khadra Qarabag Actif 130 / 119 40% 3 02.02.2027 -
Olakunle Olusegun Rostov Actif 122 / 124 40% 1 30.01.2027 -
Gorka Gorosabel Real Sociedad Actif 102 / 124 40% 2 19.01.2027 -
Konstantin Shiltsov Baltika Actif 91 / 106 40% 1 13.01.2027 -
Danil Lipovoy Ufa Actif 92 / 110 40% 1 11.01.2027 -
Klismahn Neftchi Actif 116 / 110 40% 1 06.01.2027 -
Leonel Troncoso Gimnasia La Plata Actif 82 / 95 40% 1 10.08.2026 -
Lautaro Quiroga Defensa y Justicia Actif 105 / 111 40% 1 10.08.2026 -
Valentino Massi Sarmiento Actif 101 / 97 40% 1 09.08.2026 -
Matías Cantero All Boys Actif 84 / 98 40% 1 09.08.2026 -
Demián Troya Platense Actif 98 / 113 40% 1 09.08.2026 -
Joaquín Silva Santiago Wanderers Actif 83 / 87 40% 1 08.08.2026 -
Bruno Hernández Cerro Largo Actif 97 / 89 40% 1 07.08.2026 -
Leonardo Gómez Sarmiento Actif 82 / 97 40% 1 07.08.2026 -
Facundo Miño Deportivo Riestra Actif 122 / 129 40% 1 06.08.2026 -
Pepe Sánchez Albacete Actif 108 / 102 40% 1 06.08.2026 -
Felipe Coronel All Boys Actif 107 / 117 40% 1 06.08.2026 -
Franco Chacarelli Belgrano Actif 87 / 97 40% 1 05.08.2026 -
César Magallan Estudiantes de Merida Actif 115 / 102 40% 1 04.08.2026 -
Marcelo Torres Gimnasia La Plata Actif 111 / 120 40% 1 04.08.2026 -
Ramiro Ruiz Rodríguez Atlético Tucumán Actif 115 / 126 40% 1 04.08.2026 -
Ramón Enríquez Málaga Actif 108 / 118 40% 1 04.08.2026 -